Time;durP1;ratioP1;P1;durP2;ratioP2;P2;SDS_P1;SDS_P2;PMS_P1;PMS_P2;Temp;Humidity;BMP_temperature;BMP_pressure;BME280_temperature;BME280_humidity;BME280_pressure;Samples;Min_cycle;Max_cycle;Signal;HPM_P1;HPM_P2
2021/12/30 00:00:07;;;;;;;;;0.00;0.00;;;;;16.34;79.24;101296.75;4995360;28;45477;-84
2021/12/30 00:02:32;;;;;;;;;0.00;0.00;;;;;16.70;78.99;101350.22;4995270;28;45399;-84
2021/12/30 00:04:58;;;;;;;;;0.00;0.00;;;;;16.68;78.90;101352.16;4993788;28;47581;-84
2021/12/30 00:07:24;;;;;;;;;1.00;1.00;;;;;16.67;79.20;101358.50;4995148;28;45396;-84
2021/12/30 00:09:49;;;;;;;;;0.00;0.00;;;;;16.21;79.03;101273.28;4995376;28;45314;-84
2021/12/30 00:12:14;;;;;;;;;2.00;0.00;;;;;16.12;79.04;101262.19;4995318;28;45558;-84
2021/12/30 00:14:40;;;;;;;;;0.33;0.33;;;;;16.63;79.38;101352.41;4995097;28;45422;-84
2021/12/30 00:17:05;;;;;;;;;0.00;0.00;;;;;16.31;78.69;101296.94;4994532;28;45332;-84
2021/12/30 00:19:31;;;;;;;;;2.00;1.00;;;;;16.51;78.88;101323.56;4995064;28;45592;-84
2021/12/30 00:21:56;;;;;;;;;0.33;0.33;;;;;16.51;78.62;101320.00;4995467;28;45629;-83
2021/12/30 00:24:22;;;;;;;;;0.00;0.00;;;;;16.39;79.04;101309.00;4994900;28;46518;-83
2021/12/30 00:26:47;;;;;;;;;1.00;0.00;;;;;16.60;78.93;101338.25;4995014;28;45384;-84
2021/12/30 00:29:12;;;;;;;;;1.00;1.00;;;;;16.70;78.92;101369.06;4993670;28;45386;-84
2021/12/30 00:31:38;;;;;;;;;0.00;0.00;;;;;16.51;78.88;101333.47;4994775;28;45343;-84
2021/12/30 00:34:03;;;;;;;;;1.00;1.00;;;;;16.30;79.19;101306.84;4994751;28;45745;-84
2021/12/30 00:36:28;;;;;;;;;0.67;0.67;;;;;16.53;79.65;101342.28;4994393;28;45418;-84
2021/12/30 00:38:54;;;;;;;;;2.00;2.00;;;;;16.43;79.37;101331.19;4994739;28;45411;-84
2021/12/30 00:41:19;;;;;;;;;1.67;1.67;;;;;16.52;79.57;101344.09;4995091;28;45297;-83
2021/12/30 00:43:46;;;;;;;;;1.00;1.00;;;;;16.67;79.09;101370.13;5009627;28;47420;-84
2021/12/30 00:46:12;;;;;;;;;1.00;1.00;;;;;16.67;79.37;101367.44;4994227;28;45262;-84
2021/12/30 00:48:39;;;;;;;;;2.33;1.00;;;;;16.43;79.14;101323.97;4994645;28;45519;-84
2021/12/30 00:51:05;;;;;;;;;1.67;1.00;;;;;16.51;79.13;101345.06;4994654;28;45539;-83
2021/12/30 00:53:31;;;;;;;;;0.00;0.00;;;;;16.37;79.27;101336.97;4996631;28;46462;-84
2021/12/30 00:55:56;;;;;;;;;0.00;0.00;;;;;16.45;79.12;101345.44;4997376;28;45439;-84
2021/12/30 00:58:22;;;;;;;;;2.33;0.67;;;;;16.61;79.12;101369.63;4997305;28;45540;-84
2021/12/30 01:00:48;;;;;;;;;2.00;1.00;;;;;16.58;79.81;101359.91;4997540;28;45396;-83
2021/12/30 01:03:15;;;;;;;;;1.00;1.00;;;;;16.67;79.72;101380.91;4997372;28;46250;-84
2021/12/30 01:05:41;;;;;;;;;0.00;0.00;;;;;16.30;79.95;101328.38;4997414;28;45333;-83
2021/12/30 01:08:07;;;;;;;;;0.00;0.00;;;;;16.65;79.68;101392.72;4997529;28;45432;-84
2021/12/30 01:10:34;;;;;;;;;0.00;0.00;;;;;16.63;79.42;101397.31;4997665;28;45533;-84
2021/12/30 01:13:05;;;;;;;;;0.33;0.33;;;;;16.55;79.52;101399.56;4995792;28;47514;-84
2021/12/30 01:15:46;;;;;;;;;0.00;0.00;;;;;16.12;79.77;101322.22;4996951;28;45302;-84
2021/12/30 01:18:25;;;;;;;;;0.00;0.00;;;;;16.60;79.80;101416.31;4997280;28;45379;-84
2021/12/30 01:20:51;;;;;;;;;1.67;1.00;;;;;16.59;80.11;101418.16;4996390;28;45613;-84
2021/12/30 01:23:17;;;;;;;;;1.00;1.00;;;;;16.38;79.96;101382.59;4997300;28;46006;-84
2021/12/30 01:25:42;;;;;;;;;1.00;1.00;;;;;16.60;80.23;101419.00;4996795;28;45303;-84
2021/12/30 01:28:08;;;;;;;;;0.00;0.00;;;;;16.25;80.41;101379.75;4997360;28;45625;-84
2021/12/30 01:30:33;;;;;;;;;0.00;0.00;;;;;16.23;80.98;101368.19;4997335;27;45591;-84
2021/12/30 01:32:58;;;;;;;;;0.33;0.33;;;;;16.45;80.95;101413.56;4996990;28;45347;-84
2021/12/30 01:35:25;;;;;;;;;0.00;0.00;;;;;16.25;80.96;101379.75;4996754;28;45367;-84
2021/12/30 01:37:52;;;;;;;;;1.00;1.00;;;;;16.14;80.70;101359.78;4997067;28;45478;-84
2021/12/30 01:40:18;;;;;;;;;2.00;2.00;;;;;15.61;81.06;101276.69;4997352;28;45420;-84
2021/12/30 01:42:44;;;;;;;;;1.00;1.00;;;;;16.41;81.35;101411.13;4996791;28;46342;-84
2021/12/30 01:45:10;;;;;;;;;1.00;1.00;;;;;16.55;80.99;101438.13;4996643;28;45420;-83
2021/12/30 01:47:41;;;;;;;;;0.67;0.00;;;;;16.48;81.23;101423.28;4996872;28;45378;-84
2021/12/30 01:50:07;;;;;;;;;1.00;1.00;;;;;16.49;81.30;101425.03;4997332;28;45415;-84
2021/12/30 01:52:33;;;;;;;;;1.00;1.00;;;;;16.15;81.11;101373.13;4995343;28;47162;-84
2021/12/30 01:54:58;;;;;;;;;0.00;0.00;;;;;16.49;80.89;101427.72;4996861;28;45422;-84
2021/12/30 01:57:24;;;;;;;;;1.00;0.00;;;;;16.22;81.56;101397.88;4996781;28;45602;-84
2021/12/30 01:59:50;;;;;;;;;1.00;1.00;;;;;16.60;81.19;101448.59;4997024;28;45392;-84
2021/12/30 02:02:15;;;;;;;;;1.00;1.00;;;;;16.13;81.34;101372.38;4996396;28;46831;-84
2021/12/30 02:04:40;;;;;;;;;0.00;0.00;;;;;16.51;81.41;101423.13;4995835;28;45394;-84
2021/12/30 02:07:06;;;;;;;;;1.67;1.00;;;;;16.38;81.52;101416.69;4996771;28;45368;-84
2021/12/30 02:09:32;;;;;;;;;1.00;1.00;;;;;16.49;81.26;101424.16;4997097;28;45485;-84
2021/12/30 02:11:57;;;;;;;;;0.00;0.00;;;;;16.49;80.92;101430.41;4996587;28;45841;-83
2021/12/30 02:14:23;;;;;;;;;1.00;1.00;;;;;16.21;81.19;101383.56;4996192;27;45419;-84
2021/12/30 02:16:48;;;;;;;;;1.00;1.00;;;;;16.63;81.69;101459.22;4996478;28;45287;-84
2021/12/30 02:19:14;;;;;;;;;0.00;0.00;;;;;16.30;81.17;101408.22;4996842;28;45636;-84
2021/12/30 02:21:40;;;;;;;;;0.67;0.67;;;;;16.09;81.32;101370.81;4994983;28;47183;-83
2021/12/30 02:24:05;;;;;;;;;0.00;0.00;;;;;16.59;81.61;101468.41;4996500;28;45388;-84
2021/12/30 02:26:31;;;;;;;;;0.00;0.00;;;;;16.62;81.20;101460.16;4996538;28;45341;-84
2021/12/30 02:28:56;;;;;;;;;1.00;1.00;;;;;16.58;81.13;101459.47;4996493;28;45379;-84
2021/12/30 02:31:25;;;;;;;;;0.33;0.33;;;;;16.41;80.59;101428.16;4996358;28;45493;-83
2021/12/30 02:33:51;;;;;;;;;0.00;0.00;;;;;16.63;80.59;101475.38;4996349;28;46013;-83
2021/12/30 02:36:21;;;;;;;;;0.33;0.33;;;;;16.56;80.40;101471.28;4995917;28;45481;-83
2021/12/30 02:38:46;;;;;;;;;2.00;0.67;;;;;16.45;80.76;101444.97;4996509;28;45427;-83
2021/12/30 02:41:17;;;;;;;;;0.00;0.00;;;;;16.67;80.84;101485.00;4996315;28;45441;-83
2021/12/30 02:43:44;;;;;;;;;1.33;0.00;;;;;16.67;80.35;101480.50;4995977;28;45514;-84
2021/12/30 02:46:10;;;;;;;;;0.00;0.00;;;;;16.41;80.52;101441.63;4996377;28;45502;-84
2021/12/30 02:48:41;;;;;;;;;0.00;0.00;;;;;16.70;80.42;101492.91;4995323;28;45440;-84
2021/12/30 02:51:09;;;;;;;;;0.67;0.67;;;;;16.66;80.25;101491.34;4995941;28;45467;-84
2021/12/30 02:53:34;;;;;;;;;0.00;0.00;;;;;16.36;79.92;101446.38;4996048;28;45374;-84
2021/12/30 02:56:01;;;;;;;;;0.00;0.00;;;;;16.71;80.02;101500.00;4996295;28;45424;-83
2021/12/30 02:58:26;;;;;;;;;0.00;0.00;;;;;16.32;79.85;101441.25;4995957;28;45401;-84
2021/12/30 03:01:05;;;;;;;;;0.00;0.00;;;;;16.68;79.83;101509.13;4995976;28;45927;-84
2021/12/30 03:03:31;;;;;;;;;0.00;0.00;;;;;16.45;79.67;101462.00;4996019;28;45357;-83
2021/12/30 03:05:59;;;;;;;;;0.00;0.00;;;;;16.46;79.48;101460.19;4996088;28;45411;-84
2021/12/30 03:08:25;;;;;;;;;1.33;0.00;;;;;16.70;79.63;101502.81;4996411;28;45432;-84
2021/12/30 03:10:51;;;;;;;;;0.00;0.00;;;;;16.68;80.00;101500.19;4995211;28;45438;-84
2021/12/30 03:13:19;;;;;;;;;0.00;0.00;;;;;16.22;79.88;101424.75;4996058;28;45470;-84
2021/12/30 03:15:46;;;;;;;;;0.00;0.00;;;;;16.64;79.89;101496.78;4995827;28;45435;-84
2021/12/30 03:18:13;;;;;;;;;0.00;0.00;;;;;16.46;80.03;101474.50;4996269;28;45504;-84
2021/12/30 03:20:39;;;;;;;;;0.00;0.00;;;;;16.58;79.72;101485.53;4995807;28;45555;-84
2021/12/30 03:23:04;;;;;;;;;0.00;0.00;;;;;16.23;79.40;101434.59;4995726;28;45396;-84
2021/12/30 03:25:30;;;;;;;;;0.00;0.00;;;;;16.56;79.46;101493.69;4995524;28;45384;-84
2021/12/30 03:27:56;;;;;;;;;0.00;0.00;;;;;16.45;79.54;101477.28;4996214;28;45371;-84
2021/12/30 03:30:22;;;;;;;;;0.67;0.00;;;;;16.57;79.29;101503.47;4995619;28;45418;-84
2021/12/30 03:32:47;;;;;;;;;0.00;0.00;;;;;16.49;79.59;101491.44;4994214;28;45560;-84
2021/12/30 03:35:14;;;;;;;;;1.00;0.00;;;;;16.53;79.54;101499.25;4995818;28;45337;-84
2021/12/30 03:37:40;;;;;;;;;0.00;0.00;;;;;16.35;79.21;101465.31;4995739;28;45266;-84
2021/12/30 03:40:09;;;;;;;;;0.33;0.00;;;;;16.53;79.40;101490.28;4993644;28;47479;-84
2021/12/30 03:42:35;;;;;;;;;0.33;0.33;;;;;16.28;79.87;101451.34;4995696;28;45483;-84
2021/12/30 03:45:02;;;;;;;;;0.00;0.00;;;;;16.39;79.68;101469.56;4995597;28;45422;-84
2021/12/30 03:47:28;;;;;;;;;1.00;0.00;;;;;16.51;79.92;101482.31;4996048;28;45444;-83
2021/12/30 03:49:54;;;;;;;;;0.00;0.00;;;;;16.21;79.82;101437.34;4993910;28;47056;-84
2021/12/30 03:52:25;;;;;;;;;0.00;0.00;;;;;16.45;79.72;101463.81;4995402;28;45453;-84
2021/12/30 03:54:51;;;;;;;;;0.00;0.00;;;;;16.13;79.11;101410.03;4995082;28;45319;-84
2021/12/30 03:57:16;;;;;;;;;0.33;0.00;;;;;16.51;79.76;101479.63;4995809;28;45388;-84
2021/12/30 03:59:42;;;;;;;;;0.67;0.00;;;;;16.56;79.66;101479.38;4995208;28;45546;-84
2021/12/30 04:02:07;;;;;;;;;0.00;0.00;;;;;16.54;79.14;101484.81;4993964;28;45533;-84
2021/12/30 04:04:32;;;;;;;;;0.00;0.00;;;;;16.36;79.28;101451.75;4995352;28;45806;-84
2021/12/30 04:06:58;;;;;;;;;0.00;0.00;;;;;16.50;78.97;101472.50;5010709;28;45462;-84
2021/12/30 04:09:23;;;;;;;;;2.00;1.00;;;;;16.58;79.20;101488.22;4994922;28;45487;-83
2021/12/30 04:11:49;;;;;;;;;0.33;0.33;;;;;16.44;78.92;101457.56;4995144;28;45361;-84
2021/12/30 04:14:14;;;;;;;;;0.00;0.00;;;;;16.12;78.96;101410.97;4995232;28;45421;-83
2021/12/30 04:16:40;;;;;;;;;0.00;0.00;;;;;16.36;78.64;101453.56;4995432;28;45326;-83
2021/12/30 04:19:05;;;;;;;;;0.00;0.00;;;;;16.63;78.74;101497.75;4994863;28;45369;-84
2021/12/30 04:21:31;;;;;;;;;0.00;0.00;;;;;16.26;78.50;101426.34;4995206;28;45379;-84
2021/12/30 04:23:57;;;;;;;;;0.00;0.00;;;;;16.38;78.52;101452.53;4994852;28;45269;-84
2021/12/30 04:26:22;;;;;;;;;0.00;0.00;;;;;16.65;78.45;101500.38;4994967;28;45385;-84
2021/12/30 04:28:49;;;;;;;;;2.00;0.33;;;;;16.68;78.28;101494.81;4994255;28;46195;-84
2021/12/30 04:31:14;;;;;;;;;0.00;0.00;;;;;16.70;78.61;101486.66;4995006;28;45472;-83
2021/12/30 04:33:40;;;;;;;;;0.00;0.00;;;;;16.67;78.24;101474.25;4994903;28;45395;-83
2021/12/30 04:36:06;;;;;;;;;0.00;0.00;;;;;16.69;78.20;101464.22;4995042;28;45335;-84
2021/12/30 04:38:33;;;;;;;;;0.00;0.00;;;;;16.19;77.69;101389.97;4993992;28;45524;-83
2021/12/30 04:40:59;;;;;;;;;0.33;0.33;;;;;16.78;77.86;101481.69;4994630;28;45428;-84
2021/12/30 04:43:24;;;;;;;;;0.00;0.00;;;;;16.64;78.46;101461.81;4993402;28;45393;-83
2021/12/30 04:45:51;;;;;;;;;0.00;0.00;;;;;16.78;77.72;101490.63;4995069;28;45559;-83
2021/12/30 04:48:18;;;;;;;;;1.00;0.00;;;;;16.46;78.03;101434.16;4994309;28;46050;-84
2021/12/30 04:50:47;;;;;;;;;2.00;0.00;;;;;16.57;77.93;101456.88;4993412;28;45517;-83
2021/12/30 04:53:14;;;;;;;;;0.00;0.00;;;;;16.35;77.42;101425.81;4994329;28;45359;-84
2021/12/30 04:55:40;;;;;;;;;0.00;0.00;;;;;16.42;77.33;101445.16;4994861;28;45427;-83
2021/12/30 04:58:06;;;;;;;;;0.00;0.00;;;;;16.75;77.31;101506.97;4994156;28;46779;-84
2021/12/30 05:00:32;;;;;;;;;0.67;0.00;;;;;16.78;77.23;101516.69;4994313;28;45478;-84
2021/12/30 05:03:08;;;;;;;;;2.00;0.00;;;;;16.52;77.03;101478.66;4994421;28;45438;-84
2021/12/30 05:05:52;;;;;;;;;0.00;0.00;;;;;16.76;77.18;101522.13;4994756;28;45276;-84
2021/12/30 05:08:21;;;;;;;;;0.00;0.00;;;;;16.44;76.54;101470.16;4993800;28;46163;-84
2021/12/30 05:10:48;;;;;;;;;0.00;0.00;;;;;16.62;77.03;101506.81;4994211;28;45363;-83
2021/12/30 05:13:14;;;;;;;;;2.33;0.33;;;;;16.73;76.73;101524.16;4994318;28;45348;-83
2021/12/30 05:15:40;;;;;;;;;0.00;0.00;;;;;16.70;76.78;101541.34;4994513;28;45519;-84
2021/12/30 05:18:09;;;;;;;;;0.00;0.00;;;;;16.17;76.56;101445.69;4993819;28;45654;-83
2021/12/30 05:20:35;;;;;;;;;1.00;0.33;;;;;16.68;77.03;101522.59;4994168;28;45480;-83
2021/12/30 05:23:02;;;;;;;;;3.00;0.00;;;;;16.67;76.56;101517.31;4993705;28;45492;-83
2021/12/30 05:25:27;;;;;;;;;1.00;1.00;;;;;16.65;76.42;101522.78;4994453;28;45489;-83
2021/12/30 05:27:53;;;;;;;;;0.00;0.00;;;;;16.46;77.05;101501.41;4994056;28;45506;-84
2021/12/30 05:30:21;;;;;;;;;0.00;0.00;;;;;16.57;77.12;101514.25;4993842;28;45510;-83
2021/12/30 05:32:47;;;;;;;;;0.00;0.00;;;;;16.62;76.64;101535.53;4994248;28;45406;-83
2021/12/30 05:35:13;;;;;;;;;0.33;0.00;;;;;16.51;77.15;101527.22;4994059;28;45381;-83
2021/12/30 05:37:40;;;;;;;;;0.67;0.00;;;;;16.57;77.42;101530.41;4993321;28;45409;-83
2021/12/30 05:40:08;;;;;;;;;0.00;0.00;;;;;16.48;77.08;101535.44;4995575;28;45257;-83
2021/12/30 05:42:34;;;;;;;;;0.33;0.33;;;;;16.03;77.40;101478.72;4997359;28;45372;-84
2021/12/30 05:44:59;;;;;;;;;0.67;0.67;;;;;16.40;76.87;101547.50;4997112;28;45641;-83
2021/12/30 05:47:24;;;;;;;;;2.00;0.00;;;;;16.27;77.15;101532.09;4996749;28;46624;-83
2021/12/30 05:49:50;;;;;;;;;1.00;1.00;;;;;16.39;77.36;101564.59;4996928;28;45386;-84
2021/12/30 05:52:16;;;;;;;;;0.00;0.00;;;;;16.28;77.22;101555.38;4996351;28;45472;-83
2021/12/30 05:54:42;;;;;;;;;0.00;0.00;;;;;16.30;77.25;101554.34;4997298;28;45456;-85
2021/12/30 05:57:08;;;;;;;;;0.00;0.00;;;;;16.26;77.92;101568.91;4996629;28;46738;-83
2021/12/30 05:59:34;;;;;;;;;1.33;0.33;;;;;16.23;77.56;101578.00;4996794;28;45397;-84
2021/12/30 06:02:00;;;;;;;;;2.00;0.00;;;;;16.09;77.53;101560.91;4996807;28;45377;-83
2021/12/30 06:04:26;;;;;;;;;0.67;0.67;;;;;16.20;77.85;101583.56;4996849;28;45421;-83
2021/12/30 06:06:52;;;;;;;;;1.00;1.00;;;;;16.06;77.60;101572.69;4996264;28;45475;-83
2021/12/30 06:09:17;;;;;;;;;0.67;0.67;;;;;15.95;78.07;101551.72;4996645;28;45621;-83
2021/12/30 06:11:42;;;;;;;;;1.67;1.33;;;;;15.82;77.86;101535.38;4996665;28;45407;-83
2021/12/30 06:14:08;;;;;;;;;1.00;1.00;;;;;15.95;77.97;101554.41;4997066;28;45630;-84
2021/12/30 06:16:34;;;;;;;;;1.00;1.00;;;;;15.71;77.34;101528.81;4996492;28;45522;-83
2021/12/30 06:19:00;;;;;;;;;1.67;0.67;;;;;15.86;77.91;101554.03;4996461;28;45449;-83
2021/12/30 06:21:26;;;;;;;;;1.00;1.00;;;;;16.02;77.96;101588.09;4996428;28;45390;-83
2021/12/30 06:23:52;;;;;;;;;1.00;1.00;;;;;15.95;77.55;101586.69;4996383;28;45569;-83
2021/12/30 06:26:17;;;;;;;;;0.00;0.00;;;;;15.88;78.17;101573.66;4996274;28;45530;-83
2021/12/30 06:28:43;;;;;;;;;2.00;1.00;;;;;15.74;77.90;101550.19;4996541;28;45487;-83
2021/12/30 06:31:08;;;;;;;;;1.00;1.00;;;;;15.79;77.55;101559.75;4996517;28;45225;-83
2021/12/30 06:33:33;;;;;;;;;0.33;0.33;;;;;15.95;76.98;101594.75;4996497;28;45333;-83
2021/12/30 06:35:59;;;;;;;;;2.33;1.00;;;;;15.71;77.35;101555.69;4996021;28;45299;-83
2021/12/30 06:38:24;;;;;;;;;4.67;1.00;;;;;15.89;77.57;101591.50;4994652;28;45622;-83
2021/12/30 06:40:50;;;;;;;;;0.00;0.00;;;;;15.79;77.03;101575.00;4996289;28;45501;-83
2021/12/30 06:43:15;;;;;;;;;1.67;1.67;;;;;15.75;77.16;101560.84;4996718;28;45289;-83
2021/12/30 06:45:40;;;;;;;;;1.00;1.00;;;;;15.12;76.87;101453.91;4996214;27;46197;-83
2021/12/30 06:48:07;;;;;;;;;2.00;0.00;;;;;16.00;77.21;101614.19;4995828;28;45452;-83
2021/12/30 06:50:33;;;;;;;;;1.33;1.33;;;;;15.96;77.22;101606.38;4995907;28;45477;-83
2021/12/30 06:52:59;;;;;;;;;1.00;1.00;;;;;15.98;77.41;101610.72;4995110;28;45533;-83
2021/12/30 06:55:25;;;;;;;;;2.00;1.00;;;;;16.01;77.06;101618.66;4995926;28;46077;-83
2021/12/30 06:57:50;;;;;;;;;4.00;2.67;;;;;15.69;76.85;101569.22;4996003;28;45474;-83
2021/12/30 07:00:16;;;;;;;;;2.00;2.00;;;;;15.62;76.81;101559.72;4996069;28;45502;-83
2021/12/30 07:02:43;;;;;;;;;1.00;1.00;;;;;15.78;76.46;101597.44;4995962;28;45515;-83
2021/12/30 07:05:08;;;;;;;;;5.00;3.00;;;;;15.60;76.80;101572.38;4995775;28;46405;-83
2021/12/30 07:07:34;;;;;;;;;3.00;1.33;;;;;15.82;76.56;101612.47;4995709;28;45479;-83
2021/12/30 07:09:59;;;;;;;;;4.33;3.00;;;;;15.73;76.54;101595.03;4996243;28;45377;-83
2021/12/30 07:12:25;;;;;;;;;0.67;0.67;;;;;15.99;76.69;101623.22;4996235;28;45641;-83
2021/12/30 07:14:50;;;;;;;;;1.67;1.00;;;;;15.69;76.33;101582.66;4995741;28;45899;-83
2021/12/30 07:17:15;;;;;;;;;2.00;1.00;;;;;15.81;75.98;101603.53;4995406;28;45406;-83
2021/12/30 07:19:41;;;;;;;;;2.00;1.00;;;;;15.61;75.96;101572.28;4995864;28;45379;-83
2021/12/30 07:22:06;;;;;;;;;3.00;2.00;;;;;15.67;76.16;101579.16;4995905;28;45370;-83
2021/12/30 07:24:31;;;;;;;;;4.00;1.00;;;;;16.04;75.82;101640.00;4995645;28;46491;-84
2021/12/30 07:26:57;;;;;;;;;1.33;1.00;;;;;16.05;75.71;101640.84;4995880;28;45554;-83
2021/12/30 07:29:22;;;;;;;;;2.67;2.00;;;;;15.62;74.85;101573.16;4995764;28;45377;-83
2021/12/30 07:31:47;;;;;;;;;2.00;2.00;;;;;15.83;75.11;101614.22;4995890;28;46226;-83
2021/12/30 07:34:13;;;;;;;;;4.00;2.33;;;;;15.97;74.94;101638.56;4995433;28;45429;-83
2021/12/30 07:36:38;;;;;;;;;3.00;1.33;;;;;15.82;74.41;101616.00;4993837;28;45356;-84
2021/12/30 07:39:05;;;;;;;;;3.00;0.67;;;;;16.04;75.09;101660.63;4995502;28;45508;-83
2021/12/30 07:41:30;;;;;;;;;2.33;2.00;;;;;16.01;75.11;101667.03;4995885;28;45477;-83
2021/12/30 07:43:56;;;;;;;;;2.67;0.67;;;;;16.04;75.14;101657.94;4995467;28;45489;-83
2021/12/30 07:46:21;;;;;;;;;3.00;1.00;;;;;15.88;74.52;101632.81;4995177;28;45422;-84
2021/12/30 07:48:46;;;;;;;;;2.00;2.00;;;;;15.75;74.34;101600.28;4995391;28;45889;-83
2021/12/30 07:51:12;;;;;;;;;1.33;1.33;;;;;15.78;74.20;101614.47;4995639;28;45476;-83
2021/12/30 07:53:37;;;;;;;;;2.00;1.00;;;;;15.79;74.87;101624.25;4995124;28;45404;-83
2021/12/30 07:56:03;;;;;;;;;2.33;1.00;;;;;15.94;74.00;101640.53;4995357;28;45483;-83
2021/12/30 07:58:30;;;;;;;;;8.33;2.00;;;;;16.12;74.51;101684.44;4995392;28;45416;-83
2021/12/30 08:00:55;;;;;;;;;1.00;1.00;;;;;15.94;74.07;101651.28;4993756;28;45320;-83
2021/12/30 08:03:21;;;;;;;;;3.67;2.00;;;;;16.17;74.18;101695.81;4994172;28;45350;-83
2021/12/30 08:05:46;;;;;;;;;1.67;1.67;;;;;16.20;73.71;101695.66;4995088;28;45317;-83
2021/12/30 08:08:12;;;;;;;;;3.00;2.00;;;;;16.19;73.58;101700.16;4993898;28;45262;-83
2021/12/30 08:10:37;;;;;;;;;0.67;0.00;;;;;15.78;73.54;101633.28;4995555;28;45156;-83
2021/12/30 08:13:02;;;;;;;;;1.00;1.00;;;;;16.17;73.26;101710.13;4994838;28;45497;-83
2021/12/30 08:15:28;;;;;;;;;6.00;3.00;;;;;16.03;73.63;101693.84;4993210;28;45532;-83
2021/12/30 08:17:54;;;;;;;;;4.00;3.00;;;;;16.17;73.10;101718.19;4995031;28;45388;-83
2021/12/30 08:20:22;;;;;;;;;4.00;2.33;;;;;16.13;73.43;101718.44;4993937;28;45263;-83
2021/12/30 08:22:48;;;;;;;;;1.00;1.00;;;;;16.17;73.23;101725.41;5010096;28;47367;-84
2021/12/30 08:25:14;;;;;;;;;5.00;2.00;;;;;16.09;72.94;101711.50;4994946;28;45552;-83
2021/12/30 08:27:40;;;;;;;;;4.33;1.67;;;;;16.20;73.02;101728.81;4993075;28;45431;-84
2021/12/30 08:30:10;;;;;;;;;2.67;2.67;;;;;15.73;73.17;101667.59;4995016;28;45392;-84
2021/12/30 08:32:35;;;;;;;;;3.33;1.00;;;;;16.16;73.12;101740.69;4994592;28;45431;-84
2021/12/30 08:35:01;;;;;;;;;3.33;3.33;;;;;16.15;73.22;101741.59;4994552;28;45400;-84
2021/12/30 08:37:26;;;;;;;;;3.33;2.33;;;;;15.85;73.33;101698.34;4994592;28;45713;-83
2021/12/30 08:39:52;;;;;;;;;4.00;2.00;;;;;16.02;73.54;101729.75;4994845;28;45445;-84
2021/12/30 08:42:26;;;;;;;;;1.67;1.67;;;;;16.06;73.62;101734.03;4994262;28;48214;-83
2021/12/30 08:44:53;;;;;;;;;3.33;1.67;;;;;15.91;73.02;101715.97;4992864;28;45411;-83
2021/12/30 08:47:19;;;;;;;;;4.00;2.67;;;;;16.13;73.35;101754.28;4994779;28;45409;-83
2021/12/30 08:49:46;;;;;;;;;3.33;1.67;;;;;16.02;73.52;101735.13;4994661;28;45660;-83
2021/12/30 08:52:14;;;;;;;;;2.67;1.00;;;;;16.13;73.31;101754.28;4994452;28;46487;-83
2021/12/30 08:54:39;;;;;;;;;4.00;1.67;;;;;16.00;73.12;101721.75;4994406;28;45441;-83
2021/12/30 08:57:05;;;;;;;;;2.00;1.00;;;;;15.97;73.00;101723.75;4994391;28;45394;-83
2021/12/30 08:59:30;;;;;;;;;2.67;2.00;;;;;15.26;72.90;101603.59;4994358;27;45357;-83
2021/12/30 09:01:56;;;;;;;;;4.00;2.33;;;;;15.94;73.39;101721.19;4994285;28;46441;-83
2021/12/30 09:04:21;;;;;;;;;5.33;2.33;;;;;15.63;74.14;101668.94;4994332;28;45482;-83
2021/12/30 09:06:46;;;;;;;;;2.00;2.00;;;;;15.50;73.50;101641.84;4994143;28;45404;-83
2021/12/30 09:09:12;;;;;;;;;2.33;2.00;;;;;16.18;73.01;101763.00;4994545;28;45428;-83
2021/12/30 09:11:37;;;;;;;;;4.00;2.00;;;;;15.96;73.02;101722.00;4993952;28;46571;-83
2021/12/30 09:14:02;;;;;;;;;5.33;4.33;;;;;16.17;73.31;101761.22;4995433;28;47131;-83
2021/12/30 09:16:28;;;;;;;;;5.00;3.00;;;;;16.14;73.62;101745.25;4996132;28;45635;-83
2021/12/30 09:18:53;;;;;;;;;3.33;2.00;;;;;16.18;73.03;101754.06;4997213;28;45354;-83
2021/12/30 09:21:19;;;;;;;;;1.67;1.67;;;;;15.98;73.15;101707.53;4997201;28;45374;-83
2021/12/30 09:23:44;;;;;;;;;3.00;2.00;;;;;15.96;72.64;101714.78;4996830;28;45290;-83
2021/12/30 09:26:09;;;;;;;;;2.00;1.00;;;;;15.86;72.86;101697.41;4997423;28;45354;-83
2021/12/30 09:28:35;;;;;;;;;3.67;2.33;;;;;16.28;72.83;101778.66;4997151;28;45462;-83
2021/12/30 09:31:00;;;;;;;;;5.67;2.00;;;;;15.85;72.82;101702.84;4996747;28;45402;-83
2021/12/30 09:33:26;;;;;;;;;7.33;4.00;;;;;16.09;72.81;101739.25;4997128;28;45441;-83
2021/12/30 09:35:51;;;;;;;;;2.00;2.00;;;;;16.23;73.13;101766.31;4996850;28;45416;-83
2021/12/30 09:38:17;;;;;;;;;4.67;3.67;;;;;16.02;72.63;101733.31;4995769;28;45558;-83
2021/12/30 09:40:42;;;;;;;;;4.00;1.67;;;;;16.22;72.56;101753.81;4996826;28;45420;-84
2021/12/30 09:43:09;;;;;;;;;2.00;2.00;;;;;16.26;72.60;101767.97;4996488;28;45390;-84
2021/12/30 09:45:38;;;;;;;;;3.00;3.00;;;;;16.36;72.92;101789.88;4996864;28;45420;-83
2021/12/30 09:48:07;;;;;;;;;1.67;1.67;;;;;16.24;72.62;101772.56;4997013;28;45566;-83
2021/12/30 09:50:39;;;;;;;;;3.00;3.00;;;;;16.30;72.54;101784.84;4996746;28;45403;-84
2021/12/30 09:53:05;;;;;;;;;3.00;3.00;;;;;16.33;72.77;101792.75;4996686;28;45345;-84
2021/12/30 09:55:31;;;;;;;;;5.33;2.33;;;;;15.87;72.83;101709.00;4996690;28;45267;-83
2021/12/30 09:57:56;;;;;;;;;3.00;2.00;;;;;16.34;72.53;101776.53;4996680;28;45298;-83
2021/12/30 10:00:23;;;;;;;;;2.00;2.00;;;;;16.48;72.62;101796.47;4996586;28;45896;-84
2021/12/30 10:02:49;;;;;;;;;3.00;3.00;;;;;16.15;72.57;101730.00;4996628;28;45392;-83
2021/12/30 10:05:17;;;;;;;;;3.33;2.33;;;;;16.52;72.66;101796.22;4996893;28;45397;-83
2021/12/30 10:07:43;;;;;;;;;3.00;3.00;;;;;16.52;71.91;101807.00;4997086;28;45421;-84
2021/12/30 10:10:39;;;;;;;;;3.33;3.33;;;;;16.45;72.84;101778.66;4996429;28;45396;-83
2021/12/30 10:13:21;;;;;;;;;1.67;1.33;;;;;16.38;72.10;101771.84;5004172;28;45321;-83
2021/12/30 10:15:49;;;;;;;;;4.00;3.00;;;;;16.55;72.20;101798.78;4995470;28;45448;-83
2021/12/30 10:18:18;;;;;;;;;3.33;3.33;;;;;16.53;72.29;101800.69;4996700;28;45526;-83
2021/12/30 10:20:43;;;;;;;;;3.00;3.00;;;;;16.17;72.89;101737.03;4996505;28;45502;-83
2021/12/30 10:23:15;;;;;;;;;6.00;3.33;;;;;16.66;72.79;101806.28;4996381;28;45373;-83
2021/12/30 10:25:43;;;;;;;;;6.00;3.00;;;;;16.34;72.24;101740.66;4995491;28;45419;-83
2021/12/30 10:28:19;;;;;;;;;2.00;2.00;;;;;16.48;72.19;101764.16;4995402;28;45470;-83
2021/12/30 10:30:45;;;;;;;;;2.00;2.00;;;;;16.59;71.96;101778.81;4996127;28;45410;-83
2021/12/30 10:33:12;;;;;;;;;5.67;2.67;;;;;16.76;72.20;101802.13;4996205;28;45452;-89
2021/12/30 10:35:38;;;;;;;;;1.00;1.00;;;;;16.75;71.42;101802.25;4995953;28;45526;-82
2021/12/30 10:38:09;;;;;;;;;4.00;1.67;;;;;16.70;72.19;101799.78;4996206;28;45330;-83
2021/12/30 10:40:36;;;;;;;;;5.00;4.00;;;;;16.70;71.94;101785.47;4995692;28;45428;-83
2021/12/30 10:43:45;;;;;;;;;5.67;4.00;;;;;16.69;72.13;101792.66;4996042;28;45282;-81
2021/12/30 10:46:19;;;;;;;;;1.00;1.00;;;;;16.66;72.36;101790.13;4996241;28;45370;-82
2021/12/30 10:48:57;;;;;;;;;8.33;5.67;;;;;16.27;72.41;101715.03;4995135;28;45574;-82
2021/12/30 10:51:30;;;;;;;;;6.00;4.67;;;;;16.74;71.96;101793.31;4995850;28;45399;-79
2021/12/30 10:53:57;;;;;;;;;17.33;11.33;;;;;16.34;71.54;101724.53;4994616;28;45715;-83
2021/12/30 10:56:24;;;;;;;;;4.33;4.00;;;;;16.70;71.97;101770.19;4995819;28;45435;-84
2021/12/30 10:58:52;;;;;;;;;4.00;2.00;;;;;16.65;72.67;101759.66;4994972;28;45399;-84
2021/12/30 11:01:20;;;;;;;;;5.33;3.33;;;;;16.89;72.10;101775.47;4995776;28;46501;-83
2021/12/30 11:03:55;;;;;;;;;4.00;3.00;;;;;16.81;72.21;101762.44;4995675;28;45379;-83
2021/12/30 11:06:21;;;;;;;;;2.67;2.00;;;;;16.97;71.55;101789.38;4995960;28;45451;-82
2021/12/30 11:08:49;;;;;;;;;8.33;8.00;;;;;17.02;71.74;101797.22;4996191;28;45330;-80
2021/12/30 11:11:25;;;;;;;;;9.00;5.00;;;;;16.96;71.07;101784.97;4995278;28;45925;-80
2021/12/30 11:14:03;;;;;;;;;6.00;4.00;;;;;17.11;71.30;101801.25;4995758;28;45337;-80
2021/12/30 11:16:29;;;;;;;;;7.00;4.00;;;;;17.06;71.17;101783.50;4995797;28;45317;-79
2021/12/30 11:18:57;;;;;;;;;11.33;10.67;;;;;17.05;70.99;101781.78;4995702;28;45354;-79
2021/12/30 11:21:42;;;;;;;;;3.00;2.00;;;;;17.19;70.99;101797.19;4995635;28;45451;-79